Flight Briefing for CPX208

Departure Arrival
Miami International Airport (KMIA)
Click to view FAA NOTAMS
Los Angeles International Airport (KLAX)
Click to view FAA NOTAMS
Departure Time Arrival Time
1700 UTC 2130 UTC
Aircraft Distance
B767-300BDSF 2091nm
Departure METAR Arrival METAR
KMIA 152053Z 10006KT 10SM BKN034 OVC250 25/19 A2993 RMK AO2 SLP134 T02500189 56013 KLAX 152053Z 25012KT 9SM FEW027 BKN075 BKN160 15/09 A3012 RMK AO2 SLP199 T01500089 58002
Suggested Route
WINCO2 WINCO J73 LBV SRQ Q100 LEV J86 ELP J50 SSO J4 MESSI ESTWD HLYWD1


View recent IFR Routes data
Notes



Charts and Procedures

Charts for KMIA
No chart available
Charts for KLAX
No chart available

Ventusky Weather